sensor_id;sensor_type;location;lat;lon;timestamp;temperature;humidity
16968;DHT22;64862;54.398;10.126;2023-07-28T00:07:11;16.50;84.90
16968;DHT22;64862;54.398;10.126;2023-07-28T00:17:14;16.50;84.90
16968;DHT22;64862;54.398;10.126;2023-07-28T00:27:17;16.50;84.90
16968;DHT22;64862;54.398;10.126;2023-07-28T00:37:20;16.50;85.20
16968;DHT22;64862;54.398;10.126;2023-07-28T00:47:23;16.50;85.70
16968;DHT22;64862;54.398;10.126;2023-07-28T00:57:26;16.50;86.20
16968;DHT22;64862;54.398;10.126;2023-07-28T01:07:39;16.50;86.20
16968;DHT22;64862;54.398;10.126;2023-07-28T01:17:44;16.50;86.40
16968;DHT22;64862;54.398;10.126;2023-07-28T01:27:49;16.50;86.50
16968;DHT22;64862;54.398;10.126;2023-07-28T01:37:51;16.40;86.70
16968;DHT22;64862;54.398;10.126;2023-07-28T01:47:55;16.30;86.90
16968;DHT22;64862;54.398;10.126;2023-07-28T01:57:59;16.40;87.00
16968;DHT22;64862;54.398;10.126;2023-07-28T02:08:03;16.40;87.00
16968;DHT22;64862;54.398;10.126;2023-07-28T02:18:05;16.30;87.10
16968;DHT22;64862;54.398;10.126;2023-07-28T02:28:10;16.30;87.40
16968;DHT22;64862;54.398;10.126;2023-07-28T02:38:12;16.40;87.50
16968;DHT22;64862;54.398;10.126;2023-07-28T02:48:15;16.30;87.70
16968;DHT22;64862;54.398;10.126;2023-07-28T02:58:17;16.40;88.00
16968;DHT22;64862;54.398;10.126;2023-07-28T03:08:21;16.40;88.20
16968;DHT22;64862;54.398;10.126;2023-07-28T03:18:23;16.30;88.00
16968;DHT22;64862;54.398;10.126;2023-07-28T03:28:27;16.20;88.10
16968;DHT22;64862;54.398;10.126;2023-07-28T03:38:29;16.10;88.10
16968;DHT22;64862;54.398;10.126;2023-07-28T03:48:33;16.10;88.40
16968;DHT22;64862;54.398;10.126;2023-07-28T03:58:35;16.10;88.50
16968;DHT22;64862;54.398;10.126;2023-07-28T04:08:38;16.10;88.40
16968;DHT22;64862;54.398;10.126;2023-07-28T04:18:40;16.10;88.50
16968;DHT22;64862;54.398;10.126;2023-07-28T04:28:44;16.10;88.50
16968;DHT22;64862;54.398;10.126;2023-07-28T04:38:46;16.10;88.50
16968;DHT22;64862;54.398;10.126;2023-07-28T04:48:50;16.10;88.70
16968;DHT22;64862;54.398;10.126;2023-07-28T04:59:10;16.00;88.60
16968;DHT22;64862;54.398;10.126;2023-07-28T05:09:14;16.10;89.10
16968;DHT22;64862;54.398;10.126;2023-07-28T05:19:16;16.20;89.30
16968;DHT22;64862;54.398;10.126;2023-07-28T05:29:59;16.40;89.50
16968;DHT22;64862;54.398;10.126;2023-07-28T05:40:01;16.50;89.20
16968;DHT22;64862;54.398;10.126;2023-07-28T05:50:09;16.60;89.30
16968;DHT22;64862;54.398;10.126;2023-07-28T06:00:12;16.90;89.80
16968;DHT22;64862;54.398;10.126;2023-07-28T06:10:16;17.20;89.00
16968;DHT22;64862;54.398;10.126;2023-07-28T06:20:18;17.50;87.40
16968;DHT22;64862;54.398;10.126;2023-07-28T06:30:22;17.50;84.80
16968;DHT22;64862;54.398;10.126;2023-07-28T06:40:24;17.60;84.40
16968;DHT22;64862;54.398;10.126;2023-07-28T06:50:28;17.60;84.10
16968;DHT22;64862;54.398;10.126;2023-07-28T07:00:30;17.80;83.60
16968;DHT22;64862;54.398;10.126;2023-07-28T07:10:34;18.10;81.50
16968;DHT22;64862;54.398;10.126;2023-07-28T07:20:36;18.00;81.10
16968;DHT22;64862;54.398;10.126;2023-07-28T07:30:40;17.90;81.10
16968;DHT22;64862;54.398;10.126;2023-07-28T07:40:42;17.90;81.30
16968;DHT22;64862;54.398;10.126;2023-07-28T07:50:45;17.90;81.10
16968;DHT22;64862;54.398;10.126;2023-07-28T08:00:47;18.00;80.50
16968;DHT22;64862;54.398;10.126;2023-07-28T08:10:51;18.10;79.70
16968;DHT22;64862;54.398;10.126;2023-07-28T08:20:53;18.20;78.80
16968;DHT22;64862;54.398;10.126;2023-07-28T08:30:57;18.20;78.30
16968;DHT22;64862;54.398;10.126;2023-07-28T08:41:00;18.10;77.70
16968;DHT22;64862;54.398;10.126;2023-07-28T08:51:03;18.10;78.30
16968;DHT22;64862;54.398;10.126;2023-07-28T09:01:06;18.20;78.60
16968;DHT22;64862;54.398;10.126;2023-07-28T09:11:09;18.20;77.80
16968;DHT22;64862;54.398;10.126;2023-07-28T09:21:18;18.30;77.80
16968;DHT22;64862;54.398;10.126;2023-07-28T09:31:30;18.40;77.30
16968;DHT22;64862;54.398;10.126;2023-07-28T09:41:34;18.30;77.60
16968;DHT22;64862;54.398;10.126;2023-07-28T09:51:40;18.40;78.60
16968;DHT22;64862;54.398;10.126;2023-07-28T10:01:44;18.40;77.50
16968;DHT22;64862;54.398;10.126;2023-07-28T10:11:48;18.40;77.90
16968;DHT22;64862;54.398;10.126;2023-07-28T10:21:50;18.50;78.00
16968;DHT22;64862;54.398;10.126;2023-07-28T10:32:06;18.60;77.20
16968;DHT22;64862;54.398;10.126;2023-07-28T10:42:09;18.70;77.50
16968;DHT22;64862;54.398;10.126;2023-07-28T10:52:12;18.80;77.20
16968;DHT22;64862;54.398;10.126;2023-07-28T11:02:14;18.70;76.90
16968;DHT22;64862;54.398;10.126;2023-07-28T11:12:19;18.60;76.00
16968;DHT22;64862;54.398;10.126;2023-07-28T11:22:22;18.70;74.80
16968;DHT22;64862;54.398;10.126;2023-07-28T11:32:26;18.80;75.10
16968;DHT22;64862;54.398;10.126;2023-07-28T11:42:28;18.80;74.00
16968;DHT22;64862;54.398;10.126;2023-07-28T11:52:32;18.90;74.60
16968;DHT22;64862;54.398;10.126;2023-07-28T12:02:35;19.00;73.10
16968;DHT22;64862;54.398;10.126;2023-07-28T12:12:43;19.10;72.60
16968;DHT22;64862;54.398;10.126;2023-07-28T12:22:47;19.00;72.60
16968;DHT22;64862;54.398;10.126;2023-07-28T12:32:51;18.90;73.50
16968;DHT22;64862;54.398;10.126;2023-07-28T12:42:53;19.00;72.50
16968;DHT22;64862;54.398;10.126;2023-07-28T12:52:57;19.10;72.50
16968;DHT22;64862;54.398;10.126;2023-07-28T13:02:59;19.00;72.20
16968;DHT22;64862;54.398;10.126;2023-07-28T13:13:02;19.10;72.60
16968;DHT22;64862;54.398;10.126;2023-07-28T13:23:05;19.70;71.50
16968;DHT22;64862;54.398;10.126;2023-07-28T13:33:09;20.00;69.70
16968;DHT22;64862;54.398;10.126;2023-07-28T13:43:11;20.20;69.30
16968;DHT22;64862;54.398;10.126;2023-07-28T13:53:14;20.50;67.70
16968;DHT22;64862;54.398;10.126;2023-07-28T14:03:17;20.50;67.40
16968;DHT22;64862;54.398;10.126;2023-07-28T14:13:20;20.60;66.90
16968;DHT22;64862;54.398;10.126;2023-07-28T14:23:25;20.50;66.60
16968;DHT22;64862;54.398;10.126;2023-07-28T14:33:28;20.60;68.00
16968;DHT22;64862;54.398;10.126;2023-07-28T14:43:30;20.70;68.00
16968;DHT22;64862;54.398;10.126;2023-07-28T14:53:35;20.60;67.80
16968;DHT22;64862;54.398;10.126;2023-07-28T15:03:37;20.70;67.10
16968;DHT22;64862;54.398;10.126;2023-07-28T15:13:42;20.70;67.50
16968;DHT22;64862;54.398;10.126;2023-07-28T15:23:45;20.70;66.40
16968;DHT22;64862;54.398;10.126;2023-07-28T15:33:49;20.70;67.70
16968;DHT22;64862;54.398;10.126;2023-07-28T15:43:51;20.50;67.80
16968;DHT22;64862;54.398;10.126;2023-07-28T15:53:54;20.60;66.80
16968;DHT22;64862;54.398;10.126;2023-07-28T16:03:56;20.80;65.70
16968;DHT22;64862;54.398;10.126;2023-07-28T16:14:00;20.40;65.90
16968;DHT22;64862;54.398;10.126;2023-07-28T16:24:02;20.10;68.10
16968;DHT22;64862;54.398;10.126;2023-07-28T16:34:06;20.20;68.60
16968;DHT22;64862;54.398;10.126;2023-07-28T16:44:08;20.30;69.10
16968;DHT22;64862;54.398;10.126;2023-07-28T16:54:11;20.50;68.70
16968;DHT22;64862;54.398;10.126;2023-07-28T17:04:13;20.50;70.30
16968;DHT22;64862;54.398;10.126;2023-07-28T17:14:17;20.50;70.30
16968;DHT22;64862;54.398;10.126;2023-07-28T17:24:19;20.50;73.40
16968;DHT22;64862;54.398;10.126;2023-07-28T17:34:26;21.50;69.70
16968;DHT22;64862;54.398;10.126;2023-07-28T17:44:28;22.80;66.10
16968;DHT22;64862;54.398;10.126;2023-07-28T17:54:32;23.00;64.70
16968;DHT22;64862;54.398;10.126;2023-07-28T18:04:34;21.80;66.80
16968;DHT22;64862;54.398;10.126;2023-07-28T18:14:38;20.80;70.70
16968;DHT22;64862;54.398;10.126;2023-07-28T18:24:40;20.30;73.40
16968;DHT22;64862;54.398;10.126;2023-07-28T18:34:43;19.90;75.10
16968;DHT22;64862;54.398;10.126;2023-07-28T18:44:45;19.70;76.00
16968;DHT22;64862;54.398;10.126;2023-07-28T18:54:49;19.50;76.90
16968;DHT22;64862;54.398;10.126;2023-07-28T19:04:52;19.40;77.70
16968;DHT22;64862;54.398;10.126;2023-07-28T19:14:55;19.40;78.80
16968;DHT22;64862;54.398;10.126;2023-07-28T19:24:57;19.20;79.20
16968;DHT22;64862;54.398;10.126;2023-07-28T19:35:01;19.00;80.20
16968;DHT22;64862;54.398;10.126;2023-07-28T19:45:04;18.80;80.90
16968;DHT22;64862;54.398;10.126;2023-07-28T19:55:10;18.60;81.60
16968;DHT22;64862;54.398;10.126;2023-07-28T20:05:12;18.50;82.30
16968;DHT22;64862;54.398;10.126;2023-07-28T20:15:18;18.40;82.80
16968;DHT22;64862;54.398;10.126;2023-07-28T20:25:20;18.30;83.10
16968;DHT22;64862;54.398;10.126;2023-07-28T20:35:24;18.20;83.50
16968;DHT22;64862;54.398;10.126;2023-07-28T20:45:26;18.10;83.90
16968;DHT22;64862;54.398;10.126;2023-07-28T20:55:30;18.00;84.10
16968;DHT22;64862;54.398;10.126;2023-07-28T21:05:32;18.00;84.40
16968;DHT22;64862;54.398;10.126;2023-07-28T21:15:35;17.90;84.60
16968;DHT22;64862;54.398;10.126;2023-07-28T21:25:38;17.80;84.70
16968;DHT22;64862;54.398;10.126;2023-07-28T21:35:42;17.70;84.90
16968;DHT22;64862;54.398;10.126;2023-07-28T21:45:44;17.60;85.30
16968;DHT22;64862;54.398;10.126;2023-07-28T21:55:48;17.60;85.50
16968;DHT22;64862;54.398;10.126;2023-07-28T22:05:50;17.50;85.90
16968;DHT22;64862;54.398;10.126;2023-07-28T22:15:54;17.50;86.10
16968;DHT22;64862;54.398;10.126;2023-07-28T22:25:56;17.50;86.10
16968;DHT22;64862;54.398;10.126;2023-07-28T22:36:00;17.40;86.00
16968;DHT22;64862;54.398;10.126;2023-07-28T22:46:02;17.40;86.20
16968;DHT22;64862;54.398;10.126;2023-07-28T22:56:05;17.30;86.30
16968;DHT22;64862;54.398;10.126;2023-07-28T23:06:08;17.30;86.30
16968;DHT22;64862;54.398;10.126;2023-07-28T23:16:11;17.30;86.40
16968;DHT22;64862;54.398;10.126;2023-07-28T23:26:13;17.20;86.40
16968;DHT22;64862;54.398;10.126;2023-07-28T23:36:17;17.30;87.00
16968;DHT22;64862;54.398;10.126;2023-07-28T23:46:20;17.30;87.20
16968;DHT22;64862;54.398;10.126;2023-07-28T23:56:23;17.40;87.50
